Time;durP1;ratioP1;P1;durP2;ratioP2;P2;SDS_P1;SDS_P2;PMS_P1;PMS_P2;Temp;Humidity;BMP_temperature;BMP_pressure;BME280_temperature;BME280_humidity;BME280_pressure;Samples;Min_cycle;Max_cycle;Signal;HPM_P1;HPM_P2
2022/04/16 00:00:47;;;;;;;12.48;8.13;;;;;;;10.32;87.71;103102.22;4986344;28;20089;-65
2022/04/16 00:03:13;;;;;;;12.25;8.20;;;;;;;10.16;88.22;103109.38;4969308;28;20560;-66
2022/04/16 00:05:39;;;;;;;13.07;8.20;;;;;;;10.19;88.50;103105.81;4986014;28;20046;-65
2022/04/16 00:08:07;;;;;;;11.70;8.25;;;;;;;10.23;88.14;103104.94;4987382;28;20378;-64
2022/04/16 00:10:33;;;;;;;11.50;8.20;;;;;;;10.24;87.85;103113.75;4985730;28;21129;-65
2022/04/16 00:12:59;;;;;;;12.35;8.20;;;;;;;10.25;87.49;103107.56;4986250;28;20030;-65
2022/04/16 00:15:26;;;;;;;14.55;8.18;;;;;;;10.23;87.44;103104.03;4967365;28;20047;-65
2022/04/16 00:17:52;;;;;;;13.13;8.25;;;;;;;10.19;87.56;103107.59;4953168;28;20060;-65
2022/04/16 00:20:17;;;;;;;11.80;8.20;;;;;;;10.10;87.83;103105.88;4988793;28;20089;-64
2022/04/16 00:22:43;;;;;;;14.55;9.27;;;;;;;10.11;88.02;103107.66;4987655;28;20034;-65
2022/04/16 00:25:08;;;;;;;12.35;8.73;;;;;;;10.14;88.02;103120.84;4978999;28;20038;-65
2022/04/16 00:27:34;;;;;;;16.38;9.07;;;;;;;10.12;88.13;103107.63;4968105;28;20030;-64
2022/04/16 00:30:01;;;;;;;13.95;9.43;;;;;;;10.06;88.20;103114.75;4968245;28;20089;-64
2022/04/16 00:32:27;;;;;;;14.68;8.55;;;;;;;10.08;88.47;103110.34;4962682;28;20061;-64
2022/04/16 00:34:53;;;;;;;11.80;8.88;;;;;;;10.15;87.92;103117.31;4970499;28;20030;-65
2022/04/16 00:37:18;;;;;;;12.60;8.30;;;;;;;10.17;87.74;103107.63;4968907;28;20042;-65
2022/04/16 00:39:43;;;;;;;12.93;8.82;;;;;;;10.16;87.51;103117.31;4985431;28;20033;-64
2022/04/16 00:42:09;;;;;;;14.90;9.00;;;;;;;10.10;87.87;103106.78;4969679;28;20033;-64
2022/04/16 00:44:34;;;;;;;14.90;8.77;;;;;;;10.11;88.30;103112.94;4968667;28;20045;-64
2022/04/16 00:46:59;;;;;;;12.13;9.10;;;;;;;10.11;88.21;103120.88;4990576;28;20091;-65
2022/04/16 00:49:25;;;;;;;13.40;8.25;;;;;;;10.13;88.58;103119.13;4985157;28;20069;-65
2022/04/16 00:51:51;;;;;;;13.90;9.45;;;;;;;10.08;88.22;103123.56;4954399;28;20164;-65
2022/04/16 00:54:18;;;;;;;13.30;8.95;;;;;;;10.05;88.59;103129.75;4983609;28;20089;-65
2022/04/16 00:56:44;;;;;;;11.45;8.50;;;;;;;10.07;88.53;103117.38;4985283;28;20066;-63
2022/04/16 00:59:09;;;;;;;14.50;9.30;;;;;;;10.00;88.88;103121.84;4970274;28;20034;-66
2022/04/16 01:01:35;;;;;;;14.80;9.50;;;;;;;9.99;88.21;103122.72;4984762;28;20030;-65
2022/04/16 01:04:01;;;;;;;12.45;9.75;;;;;;;10.02;89.82;103124.47;4985159;28;20034;-65
2022/04/16 01:06:40;;;;;;;14.00;9.57;;;;;;;10.10;88.66;103120.03;4968139;28;20038;-65
2022/04/16 01:09:06;;;;;;;16.17;11.20;;;;;;;10.05;86.77;103118.28;4984253;28;20113;-65
2022/04/16 01:11:32;;;;;;;15.30;11.07;;;;;;;10.08;85.84;103116.50;4984684;28;20093;-65
2022/04/16 01:14:02;;;;;;;20.35;10.70;;;;;;;10.12;85.02;103117.34;4985114;28;20436;-64
2022/04/16 01:16:32;;;;;;;15.63;10.38;;;;;;;10.13;84.61;103125.28;4969299;28;20029;-65
2022/04/16 01:18:58;;;;;;;13.57;10.18;;;;;;;10.15;83.46;103120.88;4987107;28;20048;-65
2022/04/16 01:21:23;;;;;;;16.88;10.40;;;;;;;10.13;83.02;103122.63;4984231;28;20393;-65
2022/04/16 01:23:49;;;;;;;13.32;9.65;;;;;;;10.12;83.58;103122.66;4985961;28;20109;-65
2022/04/16 01:26:15;;;;;;;14.63;10.40;;;;;;;10.09;83.23;103118.25;4984668;28;20038;-65
2022/04/16 01:28:40;;;;;;;12.93;10.27;;;;;;;10.11;82.98;103121.75;4986151;28;20113;-65
2022/04/16 01:31:06;;;;;;;17.60;10.00;;;;;;;10.03;83.05;103120.06;4966961;28;20030;-65
2022/04/16 01:33:32;;;;;;;12.35;9.93;;;;;;;10.01;82.90;103120.06;4988595;28;20064;-65
2022/04/16 01:35:58;;;;;;;16.85;10.30;;;;;;;9.93;83.58;103108.66;4987783;28;20092;-65
2022/04/16 01:38:25;;;;;;;14.77;10.40;;;;;;;9.85;82.78;103116.63;4992656;28;20030;-64
2022/04/16 01:40:54;;;;;;;13.00;9.85;;;;;;;9.78;83.05;103110.50;4985315;28;20034;-64
2022/04/16 01:43:20;;;;;;;16.63;10.60;;;;;;;9.67;83.46;103120.25;4984248;28;20029;-64
2022/04/16 01:45:50;;;;;;;16.17;10.57;;;;;;;9.55;83.86;103107.94;4986016;28;20030;-64
2022/04/16 01:48:19;;;;;;;15.27;10.35;;;;;;;9.44;84.76;103112.41;4967612;28;20034;-65
2022/04/16 01:50:48;;;;;;;19.08;11.25;;;;;;;9.34;85.26;103109.78;4984218;28;20026;-65
2022/04/16 01:53:14;;;;;;;16.13;10.52;;;;;;;9.24;85.89;103108.03;4966076;28;20022;-65
2022/04/16 01:55:40;;;;;;;16.33;11.18;;;;;;;9.18;86.59;103102.75;4984341;28;20046;-65
2022/04/16 01:58:06;;;;;;;20.30;11.35;;;;;;;9.12;86.69;103108.09;4968995;28;20109;-65
2022/04/16 02:00:33;;;;;;;15.65;10.85;;;;;;;9.07;87.51;103110.72;4983472;28;20030;-65
2022/04/16 02:02:59;;;;;;;16.35;10.93;;;;;;;9.00;87.08;103111.63;4983851;28;21802;-65
2022/04/16 02:05:24;;;;;;;16.50;11.05;;;;;;;8.92;88.05;103114.28;4960331;28;20032;-64
2022/04/16 02:07:50;;;;;;;16.13;11.25;;;;;;;8.87;88.48;103112.53;4984213;28;20027;-65
2022/04/16 02:10:16;;;;;;;14.38;10.13;;;;;;;8.87;88.28;103115.16;4970131;28;20038;-65
2022/04/16 02:12:43;;;;;;;14.95;10.13;;;;;;;8.81;88.02;103123.97;4983570;28;20030;-65
2022/04/16 02:15:09;;;;;;;16.48;10.90;;;;;;;8.73;88.83;103123.97;4984659;28;20089;-65
2022/04/16 02:17:38;;;;;;;13.63;10.18;;;;;;;8.67;89.42;103121.31;4984291;28;20090;-65
2022/04/16 02:20:09;;;;;;;16.10;10.60;;;;;;;8.63;89.87;103122.22;4972524;28;20022;-65
2022/04/16 02:22:45;;;;;;;15.02;9.90;;;;;;;8.60;89.85;103122.22;4953316;28;20034;-65
2022/04/16 02:25:11;;;;;;;17.10;11.38;;;;;;;8.52;90.29;103128.38;4991816;28;20037;-65
2022/04/16 02:27:37;;;;;;;14.57;10.57;;;;;;;8.47;90.96;103129.25;4990036;28;20049;-64
2022/04/16 02:30:08;;;;;;;15.32;10.40;;;;;;;8.42;90.95;103131.00;4988824;28;20022;-65
2022/04/16 02:32:47;;;;;;;15.52;10.70;;;;;;;8.35;91.59;103133.63;4973655;28;20355;-66
2022/04/16 02:35:16;;;;;;;15.75;11.10;;;;;;;8.32;91.71;103130.09;4992917;28;20029;-66
2022/04/16 02:37:42;;;;;;;16.70;10.95;;;;;;;8.25;91.79;103142.41;4972093;28;20041;-65
2022/04/16 02:40:09;;;;;;;15.38;10.57;;;;;;;8.24;91.87;103138.00;4973248;28;20038;-65
2022/04/16 02:42:39;;;;;;;15.27;11.07;;;;;;;8.19;92.29;103143.25;4992994;28;20038;-65
2022/04/16 02:47:52;;;;;;;16.15;11.10;;;;;;;8.04;93.57;103144.13;4990010;28;20092;-65
2022/04/16 02:50:17;;;;;;;17.55;11.10;;;;;;;7.99;93.87;103145.88;4988537;28;20516;-65
2022/04/16 02:52:46;;;;;;;14.57;11.20;;;;;;;7.94;93.77;103149.34;4971026;28;20477;-65
2022/04/16 02:55:15;;;;;;;17.48;11.70;;;;;;;7.88;94.04;103153.72;4988036;28;20109;-65
2022/04/16 02:57:41;;;;;;;16.38;11.45;;;;;;;7.83;94.21;103147.56;4971776;28;20026;-65
2022/04/16 03:00:07;;;;;;;18.98;11.80;;;;;;;7.84;94.53;103159.00;4976838;28;20452;-65
2022/04/16 03:02:32;;;;;;;18.95;11.38;;;;;;;7.83;94.72;103159.88;4970410;28;20037;-64
2022/04/16 03:04:58;;;;;;;15.63;12.30;;;;;;;7.82;94.66;103166.88;4955051;28;20997;-64
2022/04/16 03:07:23;;;;;;;16.55;11.48;;;;;;;7.76;94.52;103156.31;4975415;28;20034;-64
2022/04/16 03:09:48;;;;;;;15.75;11.55;;;;;;;7.70;94.98;103162.44;4971949;28;20042;-64
2022/04/16 03:12:14;;;;;;;15.68;12.45;;;;;;;7.65;94.95;103158.03;4988782;28;20042;-64
2022/04/16 03:17:32;;;;;;;18.38;12.15;;;;;;;7.52;96.03;103155.31;4963573;28;20056;-64
2022/04/16 03:20:10;;;;;;;17.95;12.73;;;;;;;7.47;96.26;103151.78;4989974;28;20082;-65
2022/04/16 03:22:37;;;;;;;15.13;10.77;;;;;;;7.43;96.87;103150.00;4988305;28;20026;-65
2022/04/16 03:25:07;;;;;;;18.08;12.35;;;;;;;7.38;97.09;103155.25;4988966;28;20034;-65
2022/04/16 03:27:32;;;;;;;17.52;12.30;;;;;;;7.33;97.66;103151.72;4976027;28;20043;-65
2022/04/16 03:29:58;;;;;;;18.45;13.02;;;;;;;7.32;98.15;103143.78;4988967;28;20429;-64
2022/04/16 03:32:24;;;;;;;17.75;12.05;;;;;;;7.28;98.07;103156.06;4977647;28;20125;-64
2022/04/16 03:34:49;;;;;;;20.08;12.50;;;;;;;7.25;97.97;103155.16;4975823;28;20041;-64
2022/04/16 03:37:15;;;;;;;17.88;13.02;;;;;;;7.23;98.67;103157.78;4986750;28;20984;-64
2022/04/16 03:39:40;;;;;;;19.55;13.20;;;;;;;7.19;98.82;103158.66;4971313;28;20417;-65
2022/04/16 03:42:06;;;;;;;17.95;12.75;;;;;;;7.13;99.12;103154.19;4987527;28;20037;-65
2022/04/16 03:44:31;;;;;;;19.48;13.05;;;;;;;7.10;99.10;103169.09;4986336;28;20505;-65
2022/04/16 03:46:57;;;;;;;18.75;12.75;;;;;;;7.09;99.16;103165.59;4969738;28;20128;-65
2022/04/16 03:49:22;;;;;;;18.30;13.05;;;;;;;7.11;98.70;103162.97;4996926;28;20072;-65
2022/04/16 03:51:48;;;;;;;20.15;12.13;;;;;;;7.07;98.79;103163.81;4988509;28;20038;-64
2022/04/16 03:59:59;;;;;;;21.35;14.13;;;;;;;6.95;99.33;103176.03;4963239;28;20092;-64
2022/04/16 04:02:25;;;;;;;23.20;14.02;;;;;;;6.93;99.24;103182.16;4988590;28;20022;-64
2022/04/16 04:04:50;;;;;;;21.40;13.52;;;;;;;6.92;99.64;103188.28;4990738;28;20046;-64
2022/04/16 04:07:16;;;;;;;19.67;13.10;;;;;;;6.88;99.71;103177.75;4970436;28;20046;-65
2022/04/16 04:09:42;;;;;;;20.10;13.50;;;;;;;6.87;99.33;103173.34;4989019;28;20035;-64
2022/04/16 04:12:11;;;;;;;21.95;14.05;;;;;;;6.84;99.40;103189.13;4970713;28;20034;-64
2022/04/16 04:14:43;;;;;;;21.35;13.30;;;;;;;6.83;99.59;103187.34;4970376;28;20437;-64
2022/04/16 04:17:09;;;;;;;22.50;13.38;;;;;;;6.81;99.86;103178.53;4961448;28;20030;-64
2022/04/16 04:19:36;;;;;;;22.83;14.00;;;;;;;6.78;99.80;103185.53;4969895;28;20038;-65
2022/04/16 04:22:05;;;;;;;23.42;14.30;;;;;;;6.80;100.00;103183.81;4988010;28;20076;-66
2022/04/16 04:24:31;;;;;;;22.33;14.05;;;;;;;6.77;100.00;103189.06;4988109;28;20041;-66
2022/04/16 04:26:58;;;;;;;22.85;14.23;;;;;;;6.75;99.92;103193.41;4967852;28;20038;-65
2022/04/16 04:29:23;;;;;;;23.20;13.70;;;;;;;6.71;100.00;103192.50;4991636;28;20080;-65
2022/04/16 04:31:49;;;;;;;23.05;14.38;;;;;;;6.68;100.00;103196.00;4981179;28;20033;-66
2022/04/16 04:34:14;;;;;;;24.42;14.30;;;;;;;6.67;100.00;103193.34;4966932;28;20045;-64
2022/04/16 04:36:39;;;;;;;21.95;13.80;;;;;;;6.65;100.00;103203.88;4961335;28;20601;-65
2022/04/16 04:39:05;;;;;;;24.10;14.43;;;;;;;6.62;100.00;103201.19;4974196;28;20113;-65
2022/04/16 04:41:31;;;;;;;27.55;15.20;;;;;;;6.59;100.00;103202.94;4997937;28;20045;-66
2022/04/16 04:43:56;;;;;;;23.52;15.00;;;;;;;6.59;100.00;103206.44;4990166;28;20117;-64
2022/04/16 04:46:22;;;;;;;21.75;13.55;;;;;;;6.61;100.00;103215.25;4990645;28;20030;-65
2022/04/16 04:48:47;;;;;;;22.85;14.13;;;;;;;6.61;100.00;103203.81;4972930;28;20074;-65
2022/04/16 04:51:12;;;;;;;25.67;15.35;;;;;;;6.65;100.00;103210.88;4961681;28;20053;-64
2022/04/16 04:53:38;;;;;;;21.92;14.32;;;;;;;6.61;100.00;103211.72;4974250;28;20030;-65
2022/04/16 04:56:04;;;;;;;22.73;14.85;;;;;;;6.60;100.00;103205.59;4974325;28;20057;-65
2022/04/16 04:58:30;;;;;;;21.77;14.15;;;;;;;6.60;100.00;103210.84;4972805;28;20499;-65
2022/04/16 05:00:56;;;;;;;23.02;14.25;;;;;;;6.62;100.00;103210.84;4990998;28;20030;-65
2022/04/16 05:03:21;;;;;;;24.42;14.73;;;;;;;6.63;100.00;103208.22;4973691;28;20737;-66
2022/04/16 05:05:47;;;;;;;23.75;14.32;;;;;;;6.65;100.00;103213.50;4973176;28;20108;-65
2022/04/16 05:08:12;;;;;;;24.10;14.90;;;;;;;6.72;100.00;103213.56;4991182;28;20030;-65
2022/04/16 05:10:37;;;;;;;22.55;14.38;;;;;;;6.69;100.00;103210.06;4988281;28;20041;-65
2022/04/16 05:13:03;;;;;;;23.48;14.25;;;;;;;6.71;100.00;103222.38;4965756;28;20520;-65
2022/04/16 05:15:29;;;;;;;24.77;14.48;;;;;;;6.73;100.00;103220.63;4972861;28;20074;-64
2022/04/16 05:17:54;;;;;;;25.05;14.68;;;;;;;6.69;100.00;103225.84;4966180;28;20125;-65
2022/04/16 05:20:20;;;;;;;24.00;14.55;;;;;;;6.68;100.00;103226.72;4969515;28;20034;-65
2022/04/16 05:22:46;;;;;;;21.90;14.25;;;;;;;6.73;100.00;103231.16;4987243;28;20026;-65
2022/04/16 05:25:11;;;;;;;22.67;14.45;;;;;;;6.77;100.00;103231.19;4970694;28;20392;-65
2022/04/16 05:27:37;;;;;;;24.05;14.45;;;;;;;6.81;100.00;103239.13;4966311;28;20046;-65
2022/04/16 05:30:48;;;;;;;25.95;14.93;;;;;;;6.80;100.00;103236.47;4945834;28;20026;-66
2022/04/16 05:32:51;;;;;;;24.65;14.48;;;;;;;6.83;100.00;103249.66;4978142;28;20497;-66
2022/04/16 05:35:17;;;;;;;24.55;15.55;;;;;;;6.80;100.00;103239.97;4949819;28;20885;-66
2022/04/16 05:37:42;;;;;;;23.27;14.63;;;;;;;6.84;100.00;103246.16;4966814;28;20189;-66
2022/04/16 05:40:09;;;;;;;24.67;14.68;;;;;;;6.86;100.00;103250.59;4972993;28;20062;-65
2022/04/16 05:42:42;;;;;;;22.40;13.95;;;;;;;6.93;100.00;103254.19;4986131;28;20073;-66
2022/04/16 05:45:09;;;;;;;22.92;14.15;;;;;;;7.05;100.00;103250.75;4983450;28;20038;-66
2022/04/16 05:47:35;;;;;;;25.80;15.10;;;;;;;7.10;100.00;103254.31;4983929;28;20030;-66
2022/04/16 05:50:00;;;;;;;25.58;15.13;;;;;;;7.10;100.00;103254.31;4965837;28;20602;-65
2022/04/16 05:52:26;;;;;;;20.67;13.98;;;;;;;7.11;100.00;103263.09;4971720;28;20034;-66
2022/04/16 05:54:52;;;;;;;22.40;14.63;;;;;;;7.16;100.00;103259.66;4992273;28;20058;-66
2022/04/16 05:57:19;;;;;;;22.42;14.43;;;;;;;7.25;100.00;103257.94;4960262;28;20038;-66
2022/04/16 05:59:44;;;;;;;22.95;14.85;;;;;;;7.33;100.00;103257.13;4958612;28;20386;-66
2022/04/16 06:02:10;;;;;;;22.20;14.02;;;;;;;7.33;100.00;103265.03;4956887;28;20038;-66
2022/04/16 06:04:36;;;;;;;26.55;14.80;;;;;;;7.36;100.00;103264.19;4974890;28;20143;-66
2022/04/16 06:07:01;;;;;;;23.63;14.45;;;;;;;7.38;100.00;103263.31;4974465;28;20474;-66
2022/04/16 06:09:28;;;;;;;25.92;15.05;;;;;;;7.42;100.00;103269.50;4942838;28;20039;-66
2022/04/16 06:12:00;;;;;;;21.60;14.18;;;;;;;7.50;100.00;103266.94;4960052;28;20025;-66
2022/04/16 06:14:25;;;;;;;23.63;14.52;;;;;;;7.57;100.00;103268.75;4974196;28;20042;-65
2022/04/16 06:16:51;;;;;;;21.60;14.48;;;;;;;7.68;100.00;103280.22;4993303;28;20575;-65
2022/04/16 06:19:16;;;;;;;23.75;15.07;;;;;;;7.76;100.00;103274.13;4993384;28;20034;-65
2022/04/16 06:21:41;;;;;;;24.38;15.27;;;;;;;7.84;99.74;103275.06;4991626;28;20041;-65
2022/04/16 06:24:06;;;;;;;23.98;15.98;;;;;;;7.94;99.82;103279.53;4974035;28;20114;-65
2022/04/16 06:26:32;;;;;;;25.08;14.75;;;;;;;8.00;99.43;103279.53;4998431;28;20108;-66
2022/04/16 06:28:57;;;;;;;23.92;15.43;;;;;;;8.09;99.09;103283.97;4984290;28;20121;-65
2022/04/16 06:31:23;;;;;;;22.65;14.57;;;;;;;8.16;97.95;103284.91;4966762;28;20034;-66
2022/04/16 06:33:48;;;;;;;22.45;15.15;;;;;;;8.22;98.35;103300.75;4966861;28;20035;-66
2022/04/16 06:36:14;;;;;;;23.58;16.15;;;;;;;8.27;97.85;103291.09;4956183;28;20549;-65
2022/04/16 06:38:39;;;;;;;25.08;15.68;;;;;;;8.36;97.32;103293.78;4981584;28;20042;-66
2022/04/16 06:41:04;;;;;;;26.42;16.13;;;;;;;8.42;96.41;103298.19;4959863;28;20038;-66
2022/04/16 06:43:30;;;;;;;23.65;15.93;;;;;;;8.44;97.02;103295.56;4955959;28;20038;-65
2022/04/16 06:45:55;;;;;;;24.70;15.43;;;;;;;8.48;96.43;103292.97;4956044;28;20077;-67
2022/04/16 06:48:20;;;;;;;24.48;16.35;;;;;;;8.48;96.73;103292.97;4984181;28;20120;-67
2022/04/16 06:50:46;;;;;;;24.45;15.60;;;;;;;8.55;97.14;103296.50;4990693;28;20035;-66
2022/04/16 06:53:11;;;;;;;27.98;16.67;;;;;;;8.65;96.91;103298.31;4987327;28;20385;-67
2022/04/16 06:55:37;;;;;;;24.67;16.08;;;;;;;8.67;96.73;103295.66;4955785;28;20391;-67
2022/04/16 06:58:02;;;;;;;24.08;15.52;;;;;;;8.76;96.60;103302.72;4974398;28;20492;-67
2022/04/16 07:00:29;;;;;;;23.50;16.58;;;;;;;8.83;96.37;103305.38;4963597;28;20073;-65
2022/04/16 07:02:54;;;;;;;24.58;16.45;;;;;;;8.96;96.24;103301.00;4982903;28;20478;-64
2022/04/16 07:05:20;;;;;;;26.45;17.08;;;;;;;9.04;96.54;103305.44;4992247;28;20041;-65
2022/04/16 07:07:45;;;;;;;27.45;16.80;;;;;;;9.14;95.73;103310.75;4978333;28;20481;-65
2022/04/16 07:10:11;;;;;;;23.80;16.08;;;;;;;9.18;96.20;103306.31;5002331;28;20042;-65
2022/04/16 07:12:37;;;;;;;26.48;17.75;;;;;;;9.31;96.39;103304.56;5004800;28;20117;-66
2022/04/16 07:15:03;;;;;;;26.35;17.50;;;;;;;9.41;96.07;103303.72;4974869;28;20124;-66
2022/04/16 07:17:28;;;;;;;27.40;17.75;;;;;;;9.51;95.56;103301.91;4960332;28;20043;-66
2022/04/16 07:19:54;;;;;;;25.77;16.77;;;;;;;9.70;93.81;103302.78;4972985;28;20031;-66
2022/04/16 07:22:20;;;;;;;26.58;17.58;;;;;;;9.84;94.27;103313.34;4990814;28;20409;-66
2022/04/16 07:24:48;;;;;;;29.63;17.58;;;;;;;9.99;93.76;103310.66;4997668;28;20034;-67
2022/04/16 07:27:14;;;;;;;25.63;17.05;;;;;;;10.13;92.61;103313.28;5012027;28;20022;-66
2022/04/16 07:29:39;;;;;;;24.45;17.15;;;;;;;10.27;91.91;103315.88;4976847;28;20033;-66
2022/04/16 07:32:05;;;;;;;26.88;17.80;;;;;;;10.36;91.37;103315.00;4956828;28;20031;-66
2022/04/16 07:34:30;;;;;;;25.70;17.08;;;;;;;10.51;91.33;103314.03;4923759;28;20030;-65
2022/04/16 07:36:56;;;;;;;24.35;16.52;;;;;;;10.72;89.15;103310.38;4974091;28;20117;-66
2022/04/16 07:39:21;;;;;;;24.83;16.42;;;;;;;10.86;88.69;103310.31;4983584;28;20107;-66
2022/04/16 07:41:49;;;;;;;26.30;17.33;;;;;;;10.88;87.54;103303.25;4973639;28;20030;-66
2022/04/16 07:44:15;;;;;;;25.10;17.10;;;;;;;10.97;87.84;103312.88;4983337;28;20490;-66
2022/04/16 07:46:40;;;;;;;26.80;17.58;;;;;;;11.05;88.07;103310.16;4939657;28;20039;-66
2022/04/16 07:49:05;;;;;;;24.58;17.02;;;;;;;11.12;87.40;103302.16;4955199;28;20030;-64
2022/04/16 07:51:31;;;;;;;31.15;17.42;;;;;;;11.11;87.28;103313.69;4973648;28;20041;-66
2022/04/16 07:53:58;;;;;;;23.60;16.33;;;;;;;11.20;87.50;103309.19;4953883;28;20097;-66
2022/04/16 07:56:23;;;;;;;27.95;17.35;;;;;;;11.26;87.54;103312.66;4965075;28;20398;-65
2022/04/16 07:58:50;;;;;;;22.88;16.13;;;;;;;11.50;86.54;103310.69;4972731;28;20027;-65
2022/04/16 08:01:15;;;;;;;27.05;16.90;;;;;;;11.66;86.53;103316.72;4972719;28;20087;-65
2022/04/16 08:03:41;;;;;;;26.42;16.85;;;;;;;11.75;85.27;103307.81;4970217;28;20042;-66
2022/04/16 08:06:06;;;;;;;24.30;16.27;;;;;;;11.87;84.04;103302.38;4995751;28;20031;-65
2022/04/16 08:08:31;;;;;;;23.25;15.68;;;;;;;11.91;83.67;103300.56;4978391;28;20065;-65
2022/04/16 08:10:57;;;;;;;24.73;16.13;;;;;;;12.07;83.08;103294.22;4995532;28;20121;-65
2022/04/16 08:13:23;;;;;;;27.33;17.45;;;;;;;12.15;82.39;103296.78;4997391;28;20019;-65
2022/04/16 08:15:50;;;;;;;24.60;17.05;;;;;;;12.27;82.22;103307.25;4998919;28;20477;-65
2022/04/16 08:18:16;;;;;;;26.77;16.63;;;;;;;12.48;82.37;103301.69;4998605;28;20435;-65
2022/04/16 08:20:42;;;;;;;26.45;16.75;;;;;;;12.51;80.49;103306.97;4990178;28;20033;-66
2022/04/16 08:23:07;;;;;;;25.92;17.05;;;;;;;12.64;80.45;103299.72;5015245;28;20034;-65
2022/04/16 08:27:59;;;;;;;24.90;16.98;;;;;;;12.70;80.43;103300.50;4985379;28;20026;-65
2022/04/16 08:30:25;;;;;;;22.77;16.40;;;;;;;12.85;79.72;103307.38;4987258;28;20504;-65
2022/04/16 08:32:51;;;;;;;24.73;17.17;;;;;;;13.02;80.36;103317.75;4976348;28;20019;-65
2022/04/16 08:35:17;;;;;;;26.45;17.40;;;;;;;13.18;79.68;103312.19;4975569;28;20031;-65
2022/04/16 08:37:43;;;;;;;23.80;16.73;;;;;;;13.20;79.06;103316.56;4981060;28;20030;-65
2022/04/16 08:40:10;;;;;;;27.05;16.70;;;;;;;13.21;78.23;103318.34;5008651;28;20048;-66
2022/04/16 08:42:37;;;;;;;23.05;16.10;;;;;;;13.30;78.72;103316.41;5014453;28;20401;-64
2022/04/16 08:45:05;;;;;;;23.00;15.73;;;;;;;13.46;76.73;103307.28;4959483;28;20209;-65
2022/04/16 08:47:31;;;;;;;21.92;15.65;;;;;;;13.58;77.31;103308.84;4983460;28;20038;-65
2022/04/16 08:49:59;;;;;;;24.67;15.68;;;;;;;13.57;77.54;103320.44;4990410;28;20039;-65
2022/04/16 08:52:29;;;;;;;22.95;15.80;;;;;;;13.75;76.74;103322.75;4995601;28;20042;-64
2022/04/16 08:54:55;;;;;;;23.08;15.48;;;;;;;13.79;75.45;103320.03;5013672;28;20135;-65
2022/04/16 08:57:21;;;;;;;23.83;15.60;;;;;;;13.88;75.78;103309.22;5012408;28;20030;-65
2022/04/16 08:59:53;;;;;;;22.25;14.38;;;;;;;14.09;75.12;103315.88;4977376;28;20560;-65
2022/04/16 09:02:20;;;;;;;20.55;13.43;;;;;;;14.29;74.25;103311.97;4992506;28;20084;-65
2022/04/16 09:04:47;;;;;;;20.92;14.52;;;;;;;14.21;73.67;103301.47;4994567;28;20030;-65
2022/04/16 09:07:13;;;;;;;23.75;15.93;;;;;;;14.21;74.30;103304.13;4994869;28;20031;-65
2022/04/16 09:09:38;;;;;;;24.33;15.43;;;;;;;14.12;73.50;103306.94;4961605;28;20093;-66
2022/04/16 09:12:15;;;;;;;20.90;14.52;;;;;;;14.36;72.88;103308.22;4975373;28;20027;-66
2022/04/16 09:14:44;;;;;;;23.42;14.70;;;;;;;14.63;72.54;103317.44;4957945;28;20035;-66
2022/04/16 09:17:14;;;;;;;20.08;14.45;;;;;;;15.20;70.33;103309.91;4975709;28;20393;-65
2022/04/16 09:19:39;;;;;;;20.95;14.43;;;;;;;16.07;66.86;103311.19;4975171;28;20061;-65
2022/04/16 09:22:08;;;;;;;20.50;14.45;;;;;;;17.21;63.28;103306.81;4975112;28;20069;-65
2022/04/16 09:24:48;;;;;;;19.85;13.95;;;;;;;18.71;59.89;103301.38;4975016;28;20121;-65
2022/04/16 09:27:14;;;;;;;17.70;13.07;;;;;;;19.81;55.55;103297.63;4941489;28;20034;-66
2022/04/16 09:29:40;;;;;;;17.80;14.48;;;;;;;20.60;47.63;103295.81;4975800;28;20050;-65
2022/04/16 09:32:06;;;;;;;17.88;14.05;;;;;;;20.16;48.34;103301.50;4982715;28;20026;-65
2022/04/16 09:34:32;;;;;;;19.95;13.93;;;;;;;20.63;47.43;103296.53;4964792;28;20062;-65
2022/04/16 09:36:57;;;;;;;17.95;14.02;;;;;;;20.62;47.59;103305.56;4974801;28;20478;-65
2022/04/16 09:39:25;;;;;;;17.48;13.73;;;;;;;20.59;46.07;103296.78;4946122;28;20037;-65
2022/04/16 09:41:51;;;;;;;16.63;13.10;;;;;;;20.73;46.66;103301.50;4976979;28;20022;-65
2022/04/16 09:44:22;;;;;;;16.55;13.30;;;;;;;20.93;46.18;103303.22;4976864;28;20030;-65
2022/04/16 09:46:48;;;;;;;15.13;12.57;;;;;;;21.10;43.36;103307.75;4992344;28;20062;-65
2022/04/16 09:49:15;;;;;;;14.07;11.30;;;;;;;20.52;45.53;103290.78;4976701;28;20029;-65
2022/04/16 09:51:42;;;;;;;17.48;13.25;;;;;;;20.09;46.60;103290.13;4975976;28;20050;-64
2022/04/16 09:54:09;;;;;;;17.92;12.15;;;;;;;20.81;44.07;103284.97;4974728;28;20097;-65
2022/04/16 09:56:36;;;;;;;19.80;13.65;;;;;;;20.47;44.25;103292.84;4956664;28;20363;-65
2022/04/16 09:59:04;;;;;;;15.05;12.52;;;;;;;20.43;45.58;103281.34;4974394;28;20019;-66
2022/04/16 10:01:31;;;;;;;16.02;12.93;;;;;;;19.93;45.92;103279.22;4986548;28;20043;-66
2022/04/16 10:03:57;;;;;;;16.63;12.73;;;;;;;20.39;47.45;103287.81;4957106;28;20450;-66
2022/04/16 10:06:23;;;;;;;13.68;11.55;;;;;;;21.06;44.02;103293.59;4973964;28;20038;-65
2022/04/16 10:08:49;;;;;;;15.07;11.85;;;;;;;21.86;41.30;103291.25;4974271;28;20023;-65
2022/04/16 10:11:20;;;;;;;17.92;12.63;;;;;;;21.36;42.82;103297.47;4974520;28;20492;-65
2022/04/16 10:13:58;;;;;;;15.57;12.57;;;;;;;20.63;42.42;103299.22;4941213;28;20552;-66
2022/04/16 10:16:56;;;;;;;15.23;12.80;;;;;;;19.79;44.88;103294.13;4976845;28;20092;-65
2022/04/16 10:19:21;;;;;;;14.75;11.52;;;;;;;20.17;46.36;103290.66;4977123;28;20064;-66
2022/04/16 10:21:52;;;;;;;15.15;11.30;;;;;;;21.39;44.19;103290.06;4992807;28;20546;-66
2022/04/16 10:24:23;;;;;;;;;;;;;;;22.17;38.15;103286.00;4993776;28;20030;-66
2022/04/16 10:26:49;;;;;;;16.17;10.85;;;;;;;22.00;37.89;103281.53;4975110;28;19910;-66
2022/04/16 10:29:19;;;;;;;13.07;10.30;;;;;;;22.29;37.72;103292.53;4975893;28;20112;-65
2022/04/16 10:31:49;;;;;;;11.68;9.30;;;;;;;23.26;36.57;103291.53;4991803;28;20485;-66
2022/04/16 10:34:16;;;;;;;10.07;8.30;;;;;;;23.57;35.30;103282.41;4975668;28;20503;-66
2022/04/16 10:36:52;;;;;;;11.15;9.07;;;;;;;23.73;35.20;103290.44;4991518;28;20456;-66
2022/04/16 10:39:27;;;;;;;14.35;10.52;;;;;;;23.72;37.17;103286.00;4993052;28;20034;-66
2022/04/16 10:41:56;;;;;;;11.73;9.32;;;;;;;23.69;34.00;103288.91;4986822;28;20030;-66
2022/04/16 10:44:22;;;;;;;12.75;8.65;;;;;;;23.67;34.57;103288.09;4956230;28;20576;-66
2022/04/16 10:46:49;;;;;;;13.15;9.43;;;;;;;23.59;35.05;103283.19;4983339;28;20029;-65
2022/04/16 10:49:25;;;;;;;9.77;8.23;;;;;;;23.99;32.76;103272.59;4993098;28;20057;-66
2022/04/16 10:51:52;;;;;;;12.05;9.10;;;;;;;24.00;32.79;103277.06;4991222;28;20037;-65
2022/04/16 10:54:36;;;;;;;12.98;10.07;;;;;;;24.27;35.60;103280.78;4956178;28;20058;-65
2022/04/16 10:57:03;;;;;;;12.40;8.73;;;;;;;24.23;33.06;103273.81;4955808;28;20038;-65
2022/04/16 11:00:10;;;;;;;12.38;8.13;;;;;;;24.35;32.03;103273.03;4956331;28;20038;-65
2022/04/16 11:02:37;;;;;;;11.20;8.63;;;;;;;24.05;33.15;103274.03;4973105;28;20065;-65
2022/04/16 11:05:05;;;;;;;9.88;8.00;;;;;;;23.36;34.16;103285.47;4992704;28;20018;-66
2022/04/16 11:07:36;;;;;;;12.23;8.23;;;;;;;23.25;33.77;103282.56;4992616;28;20045;-64
2022/04/16 11:10:06;;;;;;;10.35;8.30;;;;;;;23.17;34.98;103274.03;4992790;28;20019;-65
2022/04/16 11:12:32;;;;;;;10.13;7.90;;;;;;;23.07;35.33;103282.66;4990753;28;20037;-66
2022/04/16 11:14:58;;;;;;;11.60;8.85;;;;;;;23.42;34.87;103284.22;4956140;28;20110;-64
2022/04/16 11:17:24;;;;;;;11.00;8.30;;;;;;;23.83;33.41;103282.63;4973800;28;20031;-65
2022/04/16 11:20:01;;;;;;;10.18;7.47;;;;;;;24.05;32.11;103274.94;4955833;28;20031;-65
2022/04/16 11:22:26;;;;;;;10.32;7.90;;;;;;;23.08;33.42;103278.09;4955928;28;20037;-65
2022/04/16 11:24:52;;;;;;;8.98;6.78;;;;;;;22.37;34.91;103280.38;4955942;28;20042;-65
2022/04/16 11:36:00;;;;;;;8.05;5.93;;;;;;;23.57;33.22;103249.97;4958690;28;20057;-64